Kezdőlap
METAR-TAF:

METAR-TAF

Repülőterek :

Norrköping, Svédország

földrajzi szélesség: 58-35N, földrajzi hosszúság: 016-09E, magasság: 34 m

Jelenlegi meteorológiai megfigyelések

A jelentés 16 perccel ezelõtt készült, 20:50 UTC
Nyugati szél 3 kt
Hőmérséklet 17°C
Páratartalom 77%
Légköri nyomás 1016 hPa
Látótávolság 10 km, vagy több
enyhe esõ,

METAR: ESSP 192050Z AUTO 26003KT 9999 -RA NCD 17/13 Q1016

Idő: 23:06 (21:06 UTC)

Előrejelzés

A jelentés 6 órával és 36 perccel ezelõtt készült, 14:30 UTC
Az előrejelzés 19-én 15 óra UTC és 19-én 17 óra UTC között érvényes
Nyugati szél 12 kt
Látótávolság 10 km, vagy több
felhőtlen 1500 m magasságban, és nincs gomolyfelhõ

TAF: ESSP 191430Z 1915/1917 27012KT CAVOK

Meteorológiai megfigyelések és előrejelzések több, mint 4000 repülőtéren (METAR és TAF jelentéseket).

A térképen piros és sárga pontok jelzik az elérhető meteorológiai állomásokat.

Mozgassa az egeret a pont fölött, hogy megjelenjen az állomás neve.

Azután kattintson az időjárási megfigyelések és előrejelzések megtekintéséhez.

A térkép megváltoztatása: kattintson a fekete keresztel jelölt zöld gombra ráközelítéshez, a vonallal jelölt zöld gombra távolításhoz, vagy a zöld nyilakra a szomszédos térképek eléréséhez.


METAR-TAF: